createdAt,value
2017-05-11T00:00:07.156Z,20.42
2017-05-11T00:00:27.141Z,20.5
2017-05-11T00:00:47.142Z,20.56
2017-05-11T00:01:06.690Z,20.54
2017-05-11T00:01:26.303Z,20.54
2017-05-11T00:01:45.724Z,20.43
2017-05-11T00:02:05.720Z,20.56
2017-05-11T00:02:25.726Z,20.49
2017-05-11T00:02:45.699Z,20.59
2017-05-11T00:03:05.665Z,20.53
2017-05-11T00:03:25.658Z,20.54
2017-05-11T00:03:45.096Z,20.53
2017-05-11T00:04:04.551Z,20.54
2017-05-11T00:04:23.994Z,20.53
2017-05-11T00:04:44.021Z,20.54
2017-05-11T00:05:03.983Z,20.53
2017-05-11T00:05:23.993Z,20.57
2017-05-11T00:05:43.986Z,20.57
2017-05-11T00:06:03.969Z,20.61
2017-05-11T00:06:23.917Z,20.61
2017-05-11T00:06:43.342Z,20.62
2017-05-11T00:07:03.347Z,20.57
2017-05-11T00:07:22.792Z,20.61
2017-05-11T00:07:42.782Z,20.51
2017-05-11T00:08:02.813Z,20.61
2017-05-11T00:08:22.254Z,20.5
2017-05-11T00:08:42.243Z,20.53
2017-05-11T00:09:02.270Z,20.54
2017-05-11T00:09:28.531Z,20.38
2017-05-11T00:09:48.568Z,20.47
2017-05-11T00:10:11.054Z,20.47
2017-05-11T00:10:31.054Z,20.43
2017-05-11T00:10:51.054Z,20.38
2017-05-11T00:11:11.049Z,20.38
2017-05-11T00:11:31.199Z,20.4
2017-05-11T00:11:53.710Z,20.38
2017-05-11T00:12:15.149Z,20.35
2017-05-11T00:12:35.111Z,20.34
2017-05-11T00:12:58.121Z,20.4
2017-05-11T00:13:18.127Z,20.33
2017-05-11T00:13:38.121Z,20.35
2017-05-11T00:13:58.088Z,20.37
2017-05-11T00:14:24.391Z,20.24
2017-05-11T00:14:44.429Z,20.38
2017-05-11T00:15:04.431Z,20.33
2017-05-11T00:15:24.428Z,20.3
2017-05-11T00:15:44.446Z,20.26
2017-05-11T00:16:05.038Z,20.26
2017-05-11T00:16:24.849Z,20.24
2017-05-11T00:16:44.845Z,20.3
2017-05-11T00:17:04.858Z,20.4
2017-05-11T00:17:24.845Z,20.31
2017-05-11T00:17:44.853Z,20.28
2017-05-11T00:18:04.816Z,20.33
2017-05-11T00:18:24.829Z,20.3
2017-05-11T00:18:44.813Z,20.23
2017-05-11T00:19:04.819Z,20.24
2017-05-11T00:19:24.250Z,20.37
2017-05-11T00:19:44.289Z,20.28
2017-05-11T00:20:04.302Z,20.27
2017-05-11T00:20:24.277Z,20.24
2017-05-11T00:20:44.238Z,20.31
2017-05-11T00:21:04.233Z,20.31
2017-05-11T00:21:24.196Z,20.27
2017-05-11T00:21:44.156Z,20.3
2017-05-11T00:22:04.141Z,20.15
2017-05-11T00:22:23.021Z,20.19
2017-05-11T00:22:42.419Z,20.28
2017-05-11T00:23:02.461Z,20.27
2017-05-11T00:23:21.885Z,20.28
2017-05-11T00:23:41.867Z,20.28
2017-05-11T00:24:01.823Z,20.19
2017-05-11T00:24:20.678Z,20.12
2017-05-11T00:24:40.674Z,20.15
2017-05-11T00:25:00.678Z,20.06
2017-05-11T00:25:20.648Z,20.03
2017-05-11T00:25:40.614Z,20.06
2017-05-11T00:26:00.615Z,20.1
2017-05-11T00:26:20.610Z,20.08
2017-05-11T00:26:40.765Z,20.05
2017-05-11T00:27:00.760Z,20.03
2017-05-11T00:27:20.162Z,20.09
2017-05-11T00:27:40.151Z,20.12
2017-05-11T00:28:08.956Z,20.12
2017-05-11T00:28:28.937Z,20
2017-05-11T00:28:48.931Z,19.9
2017-05-11T00:29:07.811Z,20.03
2017-05-11T00:29:27.797Z,20.09
2017-05-11T00:29:47.227Z,20.06
2017-05-11T00:30:06.045Z,19.88
2017-05-11T00:30:26.032Z,19.95
2017-05-11T00:30:45.488Z,20.08
2017-05-11T00:31:05.592Z,20.03
2017-05-11T00:31:25.575Z,20.05
2017-05-11T00:31:45.564Z,19.93
2017-05-11T00:32:04.994Z,20
2017-05-11T00:32:24.435Z,19.94
2017-05-11T00:32:44.439Z,19.95
2017-05-11T00:33:04.427Z,20.03
2017-05-11T00:33:24.556Z,19.98
2017-05-11T00:33:44.562Z,20.03
2017-05-11T00:34:04.537Z,19.95
2017-05-11T00:34:23.969Z,20.05
2017-05-11T00:34:43.924Z,20.05
2017-05-11T00:35:03.917Z,19.9
2017-05-11T00:35:23.917Z,19.91
2017-05-11T00:35:43.915Z,19.94
2017-05-11T00:36:03.928Z,20
2017-05-11T00:36:23.927Z,20
2017-05-11T00:36:43.937Z,20.08
2017-05-11T00:37:03.955Z,20.06
2017-05-11T00:37:23.949Z,20.06
2017-05-11T00:37:43.934Z,20.05
2017-05-11T00:38:03.875Z,20.03
2017-05-11T00:38:23.875Z,20.08
2017-05-11T00:38:43.874Z,19.93
2017-05-11T00:39:03.899Z,19.9
2017-05-11T00:39:23.891Z,19.9
2017-05-11T00:39:43.835Z,19.94
2017-05-11T00:40:03.857Z,19.88
2017-05-11T00:40:23.289Z,19.9
2017-05-11T00:40:43.269Z,20.01
2017-05-11T00:41:03.295Z,20
2017-05-11T00:41:23.275Z,20.05
2017-05-11T00:41:43.239Z,20.01
2017-05-11T00:42:02.665Z,20.09
2017-05-11T00:42:22.708Z,20.05
2017-05-11T00:42:42.181Z,20.05
2017-05-11T00:43:02.169Z,20.12
2017-05-11T00:43:22.146Z,20.06
2017-05-11T00:43:42.210Z,20.03
2017-05-11T00:44:02.237Z,20.05
2017-05-11T00:44:21.721Z,20.09
2017-05-11T00:44:41.718Z,20.09
2017-05-11T00:45:01.724Z,20.12
2017-05-11T00:45:21.718Z,20.12
2017-05-11T00:45:41.724Z,20.13
2017-05-11T00:46:01.734Z,20.09
2017-05-11T00:46:21.741Z,20.13
2017-05-11T00:46:41.735Z,20.2
2017-05-11T00:47:01.705Z,20.2
2017-05-11T00:47:21.701Z,20.06
2017-05-11T00:47:41.712Z,20.15
2017-05-11T00:48:01.144Z,20.13
2017-05-11T00:48:21.105Z,20.1
2017-05-11T00:48:41.078Z,20.1
2017-05-11T00:49:01.096Z,20.12
2017-05-11T00:49:21.069Z,20.18
2017-05-11T00:49:41.024Z,20.18
2017-05-11T00:50:00.417Z,20.2
2017-05-11T00:50:19.807Z,20.27
2017-05-11T00:50:39.746Z,20.3
2017-05-11T00:50:59.723Z,20.15
2017-05-11T00:51:19.298Z,20.16
2017-05-11T00:51:39.287Z,20.16
2017-05-11T00:51:59.276Z,20.05
2017-05-11T00:52:18.711Z,20.16
2017-05-11T00:52:38.719Z,20.16
2017-05-11T00:52:58.742Z,20.12
2017-05-11T00:53:18.769Z,20.2
2017-05-11T00:53:38.698Z,20.19
2017-05-11T00:53:58.703Z,20.18
2017-05-11T00:54:18.677Z,20.1
2017-05-11T00:54:38.652Z,20.06
2017-05-11T00:54:58.628Z,20.13
2017-05-11T00:55:18.642Z,20.12
2017-05-11T00:55:38.615Z,20.08
2017-05-11T00:55:58.609Z,20.05
2017-05-11T00:56:18.843Z,20.1
2017-05-11T00:56:38.854Z,20.13
2017-05-11T00:56:58.305Z,20.28
2017-05-11T00:57:18.274Z,20.26
2017-05-11T00:57:38.232Z,20.27
2017-05-11T00:57:58.196Z,20.3
2017-05-11T00:58:18.180Z,20.27
2017-05-11T00:58:38.181Z,20.13
2017-05-11T00:58:58.183Z,20.3
2017-05-11T00:59:17.628Z,20.13
2017-05-11T00:59:37.582Z,20.18
2017-05-11T00:59:57.568Z,20.16
2017-05-11T01:00:17.556Z,20.23
2017-05-11T01:00:37.567Z,20.24
2017-05-11T01:00:57.590Z,20.18
2017-05-11T01:01:17.613Z,20.15
2017-05-11T01:01:37.612Z,20.06
2017-05-11T01:01:57.634Z,20.03
2017-05-11T01:02:17.615Z,20.01
2017-05-11T01:02:37.652Z,20.09
2017-05-11T01:02:57.675Z,20.03
2017-05-11T01:03:17.688Z,20.09
2017-05-11T01:03:37.672Z,20.06
2017-05-11T01:03:57.616Z,20.05
2017-05-11T01:04:17.661Z,20.05
2017-05-11T01:04:37.680Z,19.93
2017-05-11T01:04:57.652Z,20.03
2017-05-11T01:05:17.674Z,20.08
2017-05-11T01:05:37.614Z,20.06
2017-05-11T01:05:57.643Z,20.05
2017-05-11T01:06:17.787Z,19.95
2017-05-11T01:06:37.799Z,20.03
2017-05-11T01:06:57.807Z,19.94
2017-05-11T01:07:17.228Z,19.91
2017-05-11T01:07:37.244Z,19.97
2017-05-11T01:07:57.271Z,19.9
2017-05-11T01:08:17.301Z,19.95
2017-05-11T01:08:37.272Z,19.93
2017-05-11T01:08:56.739Z,19.94
2017-05-11T01:09:16.742Z,19.98
2017-05-11T01:09:36.169Z,19.97
2017-05-11T01:09:56.172Z,19.95
2017-05-11T01:10:16.167Z,19.94
2017-05-11T01:10:36.173Z,19.97
2017-05-11T01:10:56.140Z,20.09
2017-05-11T01:11:16.151Z,20.03
2017-05-11T01:11:35.582Z,19.98
2017-05-11T01:11:55.016Z,20
2017-05-11T01:12:15.047Z,19.87
2017-05-11T01:12:35.028Z,19.76
2017-05-11T01:12:55.027Z,19.88
2017-05-11T01:13:15.007Z,19.86
2017-05-11T01:13:35.011Z,19.9
2017-05-11T01:13:55.002Z,19.87
2017-05-11T01:14:14.435Z,19.94
2017-05-11T01:14:34.393Z,19.78
2017-05-11T01:14:53.816Z,19.93
2017-05-11T01:15:13.812Z,19.88
2017-05-11T01:15:33.232Z,19.93
2017-05-11T01:15:53.206Z,19.64
2017-05-11T01:16:13.212Z,19.82
2017-05-11T01:16:32.904Z,19.73
2017-05-11T01:16:52.870Z,19.83
2017-05-11T01:17:12.863Z,19.9
2017-05-11T01:17:32.839Z,19.83
2017-05-11T01:17:52.813Z,19.76
2017-05-11T01:18:12.283Z,19.79
2017-05-11T01:18:32.292Z,19.75
2017-05-11T01:18:52.294Z,19.73
2017-05-11T01:19:12.268Z,19.75
2017-05-11T01:19:31.694Z,19.58
2017-05-11T01:19:51.691Z,19.63
2017-05-11T01:20:11.653Z,19.48
2017-05-11T01:20:31.673Z,19.61
2017-05-11T01:20:51.678Z,19.63
2017-05-11T01:21:11.121Z,19.6
2017-05-11T01:21:31.373Z,19.4
2017-05-11T01:21:50.806Z,19.43
2017-05-11T01:22:10.795Z,19.4
2017-05-11T01:22:30.773Z,19.38
2017-05-11T01:22:50.778Z,19.45
2017-05-11T01:23:10.804Z,19.08
2017-05-11T01:23:30.797Z,19.31
2017-05-11T01:23:50.757Z,19.23
2017-05-11T01:24:10.761Z,19.25
2017-05-11T01:24:30.712Z,19.2
2017-05-11T01:24:50.132Z,19.13
2017-05-11T01:25:10.124Z,19.08
2017-05-11T01:25:43.931Z,19.18
2017-05-11T01:26:03.921Z,19.2
2017-05-11T01:26:24.061Z,19.24
2017-05-11T01:26:44.037Z,19.11
2017-05-11T01:27:04.038Z,19.13
2017-05-11T01:27:24.022Z,18.97
2017-05-11T01:27:44.656Z,19.13
2017-05-11T01:28:08.447Z,18.98
2017-05-11T01:28:28.443Z,19.13
2017-05-11T01:28:48.429Z,19.15
2017-05-11T01:29:08.400Z,19.15
2017-05-11T01:29:28.405Z,19.15
2017-05-11T01:29:48.428Z,18.98
2017-05-11T01:30:08.455Z,19.14
2017-05-11T01:30:28.457Z,19.14
2017-05-11T01:30:48.459Z,19.14
2017-05-11T01:31:07.880Z,19.09
2017-05-11T01:31:28.146Z,19.05
2017-05-11T01:31:48.167Z,18.98
2017-05-11T01:32:07.110Z,18.95
2017-05-11T01:32:26.522Z,19.01
2017-05-11T01:32:45.940Z,18.9
2017-05-11T01:33:05.956Z,18.86
2017-05-11T01:33:25.946Z,18.97
2017-05-11T01:33:45.907Z,18.87
2017-05-11T01:34:05.925Z,19.01
2017-05-11T01:34:25.886Z,18.98
2017-05-11T01:34:45.870Z,18.89
2017-05-11T01:35:05.867Z,18.9
2017-05-11T01:35:25.841Z,18.87
2017-05-11T01:35:45.838Z,18.95
2017-05-11T01:36:05.873Z,18.8
2017-05-11T01:36:25.859Z,18.87
2017-05-11T01:36:45.292Z,18.79
2017-05-11T01:37:05.285Z,18.86
2017-05-11T01:37:25.251Z,18.76
2017-05-11T01:37:45.226Z,18.8
2017-05-11T01:38:04.693Z,18.82
2017-05-11T01:38:24.717Z,18.79
2017-05-11T01:38:44.690Z,18.73
2017-05-11T01:39:04.708Z,18.74
2017-05-11T01:39:24.697Z,18.83
2017-05-11T01:39:44.652Z,18.58
2017-05-11T01:40:04.666Z,18.61
2017-05-11T01:40:24.670Z,18.69
2017-05-11T01:40:44.659Z,18.86
2017-05-11T01:41:05.173Z,18.77
2017-05-11T01:41:25.199Z,18.83
2017-05-11T01:41:45.178Z,18.84
2017-05-11T01:42:05.156Z,18.82
2017-05-11T01:42:24.086Z,18.76
2017-05-11T01:42:44.101Z,18.8
2017-05-11T01:43:04.126Z,18.82
2017-05-11T01:43:23.556Z,18.76
2017-05-11T01:43:43.602Z,18.8
2017-05-11T01:44:03.063Z,18.74
2017-05-11T01:44:23.045Z,18.76
2017-05-11T01:44:43.037Z,18.73
2017-05-11T01:45:03.038Z,18.69
2017-05-11T01:45:23.097Z,18.79
2017-05-11T01:45:43.085Z,18.77
2017-05-11T01:46:03.085Z,18.76
2017-05-11T01:46:23.077Z,18.76
2017-05-11T01:46:42.547Z,18.77
2017-05-11T01:47:02.534Z,18.83
2017-05-11T01:47:22.534Z,18.69
2017-05-11T01:47:42.516Z,18.58
2017-05-11T01:48:02.579Z,18.64
2017-05-11T01:48:22.582Z,18.67
2017-05-11T01:48:42.563Z,18.62
2017-05-11T01:49:02.577Z,18.68
2017-05-11T01:49:21.991Z,18.65
2017-05-11T01:49:41.971Z,18.68
2017-05-11T01:50:01.942Z,18.49
2017-05-11T01:50:21.974Z,18.59
2017-05-11T01:50:41.946Z,18.65
2017-05-11T01:51:01.925Z,18.61
2017-05-11T01:51:21.936Z,18.57
2017-05-11T01:51:41.387Z,18.58
2017-05-11T01:52:00.820Z,18.58
2017-05-11T01:52:20.785Z,18.53
2017-05-11T01:52:40.259Z,18.44
2017-05-11T01:53:00.221Z,18.53
2017-05-11T01:53:20.241Z,18.58
2017-05-11T01:53:40.230Z,18.55
2017-05-11T01:54:00.222Z,18.58
2017-05-11T01:54:20.236Z,18.58
2017-05-11T01:54:40.214Z,18.57
2017-05-11T01:55:00.214Z,18.68
2017-05-11T01:55:20.244Z,18.65
2017-05-11T01:55:40.268Z,18.65
2017-05-11T01:56:00.227Z,18.69
2017-05-11T01:56:19.771Z,18.65
2017-05-11T01:56:39.757Z,18.46
2017-05-11T01:56:59.168Z,18.55
2017-05-11T01:57:18.638Z,18.46
2017-05-11T01:57:38.625Z,18.28
2017-05-11T01:57:57.521Z,18.37
2017-05-11T01:58:17.474Z,18.49
2017-05-11T01:58:36.921Z,18.5
2017-05-11T01:58:56.900Z,18.34
2017-05-11T01:59:16.905Z,18.52
2017-05-11T01:59:36.868Z,18.43
2017-05-11T01:59:56.313Z,18.52
2017-05-11T02:00:15.735Z,18.44
2017-05-11T02:00:35.732Z,18.52
2017-05-11T02:00:55.165Z,18.46
2017-05-11T02:01:14.612Z,18.55
2017-05-11T02:01:34.584Z,18.52
2017-05-11T02:01:54.576Z,18.58
2017-05-11T02:02:14.032Z,18.61
2017-05-11T02:02:34.152Z,18.62
2017-05-11T02:02:54.179Z,18.53
2017-05-11T02:03:14.180Z,18.46
2017-05-11T02:03:34.205Z,18.57
2017-05-11T02:03:54.178Z,18.57
2017-05-11T02:04:13.614Z,18.55
2017-05-11T02:04:33.593Z,18.5
2017-05-11T02:04:53.586Z,18.44
2017-05-11T02:05:13.564Z,18.47
2017-05-11T02:05:33.544Z,18.47
2017-05-11T02:05:53.512Z,18.55
2017-05-11T02:06:13.504Z,18.44
2017-05-11T02:06:33.494Z,18.35
2017-05-11T02:06:53.488Z,18.42
2017-05-11T02:07:13.540Z,18.4
2017-05-11T02:07:33.513Z,18.35
2017-05-11T02:07:53.506Z,18.4
2017-05-11T02:08:13.719Z,18.32
2017-05-11T02:08:33.152Z,18.39
2017-05-11T02:08:53.148Z,18.44
2017-05-11T02:09:13.164Z,18.34
2017-05-11T02:09:33.155Z,18.34
2017-05-11T02:09:53.139Z,18.32
2017-05-11T02:10:38.948Z,18.39
2017-05-11T02:10:58.384Z,18.34
2017-05-11T02:11:18.822Z,18.35
2017-05-11T02:11:38.867Z,18.37
2017-05-11T02:11:58.869Z,18.27
2017-05-11T02:12:19.078Z,18.37
2017-05-11T02:12:39.062Z,18.32
2017-05-11T02:12:57.926Z,18.39
2017-05-11T02:13:17.868Z,18.37
2017-05-11T02:13:37.861Z,18.28
2017-05-11T02:13:57.878Z,18.27
2017-05-11T02:14:17.832Z,18.32
2017-05-11T02:14:37.789Z,18.25
2017-05-11T02:14:57.229Z,18.19
2017-05-11T02:15:16.641Z,18.28
2017-05-11T02:15:36.667Z,18.35
2017-05-11T02:15:56.626Z,18.34
2017-05-11T02:16:16.765Z,18.29
2017-05-11T02:16:36.729Z,18.21
2017-05-11T02:16:56.733Z,18.28
2017-05-11T02:17:16.727Z,18.27
2017-05-11T02:17:36.727Z,18.37
2017-05-11T02:17:56.745Z,18.29
2017-05-11T02:18:16.767Z,18.28
2017-05-11T02:18:37.053Z,18.31
2017-05-11T02:18:57.083Z,18.32
2017-05-11T02:19:17.100Z,18.4
2017-05-11T02:19:37.080Z,18.35
2017-05-11T02:19:57.099Z,18.35
2017-05-11T02:20:17.061Z,18.37
2017-05-11T02:20:36.488Z,18.32
2017-05-11T02:20:56.514Z,18.4
2017-05-11T02:21:16.521Z,18.32
2017-05-11T02:21:35.950Z,18.34
2017-05-11T02:21:55.934Z,18.37
2017-05-11T02:22:15.904Z,18.34
2017-05-11T02:22:35.305Z,18.32
2017-05-11T02:22:55.264Z,18.35
2017-05-11T02:23:15.248Z,18.42
2017-05-11T02:23:35.223Z,18.34
2017-05-11T02:23:55.223Z,18.37
2017-05-11T02:24:14.667Z,18.34
2017-05-11T02:24:34.624Z,18.27
2017-05-11T02:24:54.579Z,18.37
2017-05-11T02:25:14.013Z,18.34
2017-05-11T02:25:34.019Z,18.37
2017-05-11T02:25:53.427Z,18.43
2017-05-11T02:26:13.418Z,18.37
2017-05-11T02:26:33.479Z,18.35
2017-05-11T02:26:53.483Z,18.43
2017-05-11T02:27:15.250Z,18.46
2017-05-11T02:27:37.922Z,18.47
2017-05-11T02:27:57.905Z,18.49
2017-05-11T02:28:17.322Z,18.5
2017-05-11T02:28:37.322Z,18.52
2017-05-11T02:28:57.285Z,18.43
2017-05-11T02:29:16.730Z,18.5
2017-05-11T02:29:36.762Z,18.47
2017-05-11T02:29:56.239Z,18.52
2017-05-11T02:30:15.767Z,18.57
2017-05-11T02:30:35.274Z,18.58
2017-05-11T02:30:55.237Z,18.64
2017-05-11T02:31:15.222Z,18.58
2017-05-11T02:31:35.359Z,18.62
2017-05-11T02:31:55.488Z,18.65
2017-05-11T02:32:15.492Z,18.74
2017-05-11T02:32:35.488Z,18.74
2017-05-11T02:32:55.469Z,18.65
2017-05-11T02:33:15.439Z,18.67
2017-05-11T02:33:35.420Z,18.73
2017-05-11T02:33:55.427Z,18.68
2017-05-11T02:34:15.615Z,18.71
2017-05-11T02:34:36.259Z,18.68
2017-05-11T02:34:56.220Z,18.73
2017-05-11T02:35:16.172Z,18.61
2017-05-11T02:35:36.170Z,18.68
2017-05-11T02:35:55.580Z,18.74
2017-05-11T02:36:15.728Z,18.65
2017-05-11T02:36:36.528Z,18.64
2017-05-11T02:36:56.565Z,18.67
2017-05-11T02:37:17.154Z,18.64
2017-05-11T02:37:36.720Z,18.67
2017-05-11T02:37:58.122Z,18.73
2017-05-11T02:38:17.717Z,18.64
2017-05-11T02:38:37.930Z,18.68
2017-05-11T02:38:57.392Z,18.71
2017-05-11T02:39:17.351Z,18.61
2017-05-11T02:39:37.323Z,18.73
2017-05-11T02:39:57.384Z,18.67
2017-05-11T02:40:17.482Z,18.65
2017-05-11T02:40:37.489Z,18.62
2017-05-11T02:40:57.491Z,18.73
2017-05-11T02:41:18.078Z,18.68
2017-05-11T02:41:38.044Z,18.76
2017-05-11T02:41:58.013Z,18.62
2017-05-11T02:42:18.014Z,18.62
2017-05-11T02:42:36.905Z,18.69
2017-05-11T02:42:56.953Z,18.65
2017-05-11T02:43:16.939Z,18.67
2017-05-11T02:43:36.940Z,18.74
2017-05-11T02:43:56.946Z,18.68
2017-05-11T02:44:16.954Z,18.61
2017-05-11T02:44:36.390Z,18.68
2017-05-11T02:44:56.420Z,18.68
2017-05-11T02:45:15.856Z,18.64
2017-05-11T02:45:35.879Z,18.65
2017-05-11T02:45:55.298Z,18.73
2017-05-11T02:46:15.075Z,18.64
2017-05-11T02:46:34.396Z,18.73
2017-05-11T02:46:53.693Z,18.67
2017-05-11T02:47:12.930Z,18.71
2017-05-11T02:47:32.203Z,18.64
2017-05-11T02:47:51.462Z,18.71
2017-05-11T02:48:10.719Z,18.73
2017-05-11T02:48:29.979Z,18.69
2017-05-11T02:48:49.270Z,18.67
2017-05-11T02:49:08.045Z,18.69
2017-05-11T02:49:27.333Z,18.68
2017-05-11T02:49:46.622Z,18.65
2017-05-11T02:50:05.893Z,18.64
2017-05-11T02:50:25.132Z,18.62
2017-05-11T02:50:44.402Z,18.62
2017-05-11T02:51:03.694Z,18.71
2017-05-11T02:51:22.983Z,18.71
2017-05-11T02:51:42.265Z,18.71
2017-05-11T02:52:01.046Z,18.69
2017-05-11T02:52:20.320Z,18.73
2017-05-11T02:52:39.606Z,18.67
2017-05-11T02:52:58.836Z,18.74
2017-05-11T02:53:18.111Z,18.74
2017-05-11T02:53:37.372Z,18.82
2017-05-11T02:53:56.642Z,18.76
2017-05-11T02:54:15.891Z,18.79
2017-05-11T02:54:35.152Z,18.76
2017-05-11T02:54:54.436Z,18.77
2017-05-11T02:55:13.232Z,18.69
2017-05-11T02:55:32.512Z,18.73
2017-05-11T02:55:51.762Z,18.79
2017-05-11T02:56:10.539Z,18.8
2017-05-11T02:56:29.826Z,18.74
2017-05-11T02:56:49.097Z,18.79
2017-05-11T02:57:07.852Z,18.82
2017-05-11T02:57:26.606Z,18.83
2017-05-11T02:57:45.875Z,18.76
2017-05-11T02:58:04.575Z,18.79
2017-05-11T02:58:23.334Z,18.83
2017-05-11T02:58:42.660Z,18.79
2017-05-11T02:59:01.929Z,18.8
2017-05-11T02:59:21.212Z,18.87
2017-05-11T02:59:40.453Z,18.84
2017-05-11T02:59:59.216Z,18.89
2017-05-11T03:00:18.466Z,18.84
2017-05-11T03:00:37.750Z,18.83
2017-05-11T03:00:57.018Z,18.84
2017-05-11T03:01:16.508Z,18.89
2017-05-11T03:01:35.803Z,18.87
2017-05-11T03:01:55.052Z,18.87
2017-05-11T03:02:14.295Z,18.92
2017-05-11T03:02:33.577Z,18.9
2017-05-11T03:02:52.817Z,18.82
2017-05-11T03:03:12.094Z,18.89
2017-05-11T03:03:31.358Z,18.83
2017-05-11T03:03:50.140Z,18.89
2017-05-11T03:04:09.427Z,18.89
2017-05-11T03:04:28.721Z,18.89
2017-05-11T03:04:48.005Z,18.89
2017-05-11T03:05:07.291Z,18.8
2017-05-11T03:05:26.596Z,18.84
2017-05-11T03:05:45.901Z,18.83
2017-05-11T03:06:05.195Z,18.8
2017-05-11T03:06:24.258Z,18.84
2017-05-11T03:06:43.546Z,18.84
2017-05-11T03:07:01.800Z,18.83
2017-05-11T03:07:21.094Z,18.76
2017-05-11T03:07:40.345Z,18.77
2017-05-11T03:07:59.643Z,18.83
2017-05-11T03:08:18.889Z,18.79
2017-05-11T03:08:38.139Z,18.86
2017-05-11T03:08:56.385Z,18.76
2017-05-11T03:09:15.183Z,18.8
2017-05-11T03:09:34.442Z,18.82
2017-05-11T03:09:53.705Z,18.83
2017-05-11T03:10:11.918Z,18.87
2017-05-11T03:10:31.236Z,18.8
2017-05-11T03:10:50.521Z,18.76
2017-05-11T03:11:09.298Z,18.8
2017-05-11T03:11:28.579Z,18.77
2017-05-11T03:11:47.830Z,18.76
2017-05-11T03:12:06.592Z,18.79
2017-05-11T03:12:25.859Z,18.76
2017-05-11T03:12:45.134Z,18.76
2017-05-11T03:13:18.398Z,18.76
2017-05-11T03:13:37.697Z,18.8
2017-05-11T03:13:56.979Z,18.82
2017-05-11T03:14:16.273Z,18.83
2017-05-11T03:14:35.559Z,18.79
2017-05-11T03:14:54.856Z,18.87
2017-05-11T03:15:14.165Z,18.84
2017-05-11T03:15:33.448Z,18.77
2017-05-11T03:15:52.692Z,18.77
2017-05-11T03:16:11.978Z,18.79
2017-05-11T03:16:31.262Z,18.86
2017-05-11T03:16:50.543Z,18.86
2017-05-11T03:17:09.290Z,18.83
2017-05-11T03:17:28.606Z,18.84
2017-05-11T03:17:47.899Z,18.76
2017-05-11T03:18:06.686Z,18.84
2017-05-11T03:18:25.458Z,18.87
2017-05-11T03:18:44.769Z,18.84
2017-05-11T03:19:03.586Z,18.84
2017-05-11T03:19:22.850Z,18.83
2017-05-11T03:19:42.164Z,18.94
2017-05-11T03:20:01.472Z,18.98
2017-05-11T03:20:20.767Z,18.92
2017-05-11T03:20:40.057Z,18.97
2017-05-11T03:20:59.348Z,18.89
2017-05-11T03:21:18.394Z,19.01
2017-05-11T03:21:37.694Z,18.98
2017-05-11T03:21:56.971Z,18.9
2017-05-11T03:22:16.244Z,18.97
2017-05-11T03:22:35.550Z,19.01
2017-05-11T03:22:54.330Z,19.01
2017-05-11T03:23:13.129Z,18.82
2017-05-11T03:23:32.414Z,18.95
2017-05-11T03:23:51.689Z,18.98
2017-05-11T03:24:10.477Z,19.02
2017-05-11T03:24:29.779Z,18.98
2017-05-11T03:24:49.071Z,18.97
2017-05-11T03:25:08.409Z,19.01
2017-05-11T03:25:27.689Z,18.9
2017-05-11T03:25:46.453Z,18.95
2017-05-11T03:26:05.208Z,18.95
2017-05-11T03:26:24.497Z,18.98
2017-05-11T03:26:43.811Z,18.95
2017-05-11T03:27:03.064Z,18.99
2017-05-11T03:27:21.794Z,18.97
2017-05-11T03:27:41.087Z,18.97
2017-05-11T03:28:00.368Z,18.99
2017-05-11T03:28:19.593Z,18.94
2017-05-11T03:28:38.898Z,18.94
2017-05-11T03:28:57.667Z,19.13
2017-05-11T03:29:16.471Z,19.15
2017-05-11T03:29:35.742Z,18.94
2017-05-11T03:29:55.007Z,18.97
2017-05-11T03:30:13.738Z,18.97
2017-05-11T03:30:33.030Z,18.99
2017-05-11T03:30:52.325Z,19.05
2017-05-11T03:31:11.810Z,18.97
2017-05-11T03:31:30.581Z,18.94
2017-05-11T03:31:49.844Z,18.98
2017-05-11T03:32:09.121Z,19.11
2017-05-11T03:32:30.007Z,18.98
2017-05-11T03:32:49.457Z,18.92
2017-05-11T03:33:08.901Z,19.05
2017-05-11T03:33:28.913Z,19.01
2017-05-11T03:33:48.323Z,19.11
2017-05-11T03:34:08.325Z,19.06
2017-05-11T03:34:28.309Z,19.09
2017-05-11T03:34:48.335Z,19.05
2017-05-11T03:35:08.315Z,19.14
2017-05-11T03:35:28.310Z,19.06
2017-05-11T03:35:47.694Z,19.15
2017-05-11T03:36:07.666Z,19.17
2017-05-11T03:36:27.665Z,19.15
2017-05-11T03:36:47.680Z,19.15
2017-05-11T03:37:07.746Z,19.17
2017-05-11T03:37:27.736Z,19.15
2017-05-11T03:37:47.723Z,19.14
2017-05-11T03:38:07.723Z,19.14
2017-05-11T03:38:27.722Z,19.13
2017-05-11T03:38:47.732Z,19.09
2017-05-11T03:39:07.758Z,19.11
2017-05-11T03:39:27.770Z,19.09
2017-05-11T03:39:47.768Z,19.09
2017-05-11T03:40:07.749Z,19.17
2017-05-11T03:40:27.754Z,19.2
2017-05-11T03:40:47.768Z,19.17
2017-05-11T03:41:07.178Z,19.14
2017-05-11T03:41:27.137Z,19.18
2017-05-11T03:41:47.153Z,19.14
2017-05-11T03:42:07.140Z,19.23
2017-05-11T03:42:27.106Z,19.25
2017-05-11T03:42:46.522Z,19.18
2017-05-11T03:43:06.530Z,19.11
2017-05-11T03:43:26.510Z,19.2
2017-05-11T03:43:46.514Z,19.11
2017-05-11T03:44:05.956Z,19.11
2017-05-11T03:44:25.322Z,19.14
2017-05-11T03:44:44.604Z,19.17
2017-05-11T03:45:03.928Z,19.24
2017-05-11T03:45:23.243Z,19.13
2017-05-11T03:45:42.533Z,19.24
2017-05-11T03:46:01.819Z,19.31
2017-05-11T03:46:21.281Z,19.25
2017-05-11T03:46:40.548Z,19.27
2017-05-11T03:46:59.858Z,19.11
2017-05-11T03:47:19.164Z,19.06
2017-05-11T03:47:38.447Z,19.13
2017-05-11T03:47:57.195Z,19.05
2017-05-11T03:48:15.961Z,19.09
2017-05-11T03:48:35.234Z,19.14
2017-05-11T03:48:54.486Z,19.06
2017-05-11T03:49:13.794Z,19.01
2017-05-11T03:49:33.095Z,19.01
2017-05-11T03:49:52.331Z,18.97
2017-05-11T03:50:11.587Z,19.11
2017-05-11T03:50:30.849Z,19.13
2017-05-11T03:50:50.149Z,18.99
2017-05-11T03:51:08.922Z,18.94
2017-05-11T03:51:28.406Z,18.94
2017-05-11T03:51:47.234Z,19.01
2017-05-11T03:52:06.488Z,18.97
2017-05-11T03:52:25.771Z,18.99
2017-05-11T03:52:45.028Z,18.95
2017-05-11T03:53:04.306Z,18.97
2017-05-11T03:53:23.571Z,18.95
2017-05-11T03:53:42.850Z,19.01
2017-05-11T03:54:02.132Z,18.98
2017-05-11T03:54:21.451Z,19.08
2017-05-11T03:54:40.750Z,19.14
2017-05-11T03:55:00.044Z,19.08
2017-05-11T03:55:19.360Z,18.95
2017-05-11T03:55:38.625Z,19.01
2017-05-11T03:55:57.417Z,18.94
2017-05-11T03:56:16.692Z,18.94
2017-05-11T03:56:35.988Z,18.87
2017-05-11T03:56:55.294Z,18.95
2017-05-11T03:57:14.593Z,18.87
2017-05-11T03:57:33.869Z,18.92
2017-05-11T03:57:52.588Z,18.94
2017-05-11T03:58:10.849Z,18.76
2017-05-11T03:58:30.127Z,18.92
2017-05-11T03:58:49.389Z,18.87
2017-05-11T03:59:08.670Z,18.95
2017-05-11T03:59:27.981Z,18.97
2017-05-11T03:59:46.754Z,18.84
2017-05-11T04:00:05.015Z,18.82
2017-05-11T04:00:24.278Z,18.82
2017-05-11T04:00:45.024Z,18.76
2017-05-11T04:01:04.284Z,18.82
2017-05-11T04:01:23.726Z,18.86
2017-05-11T04:01:42.997Z,18.87
2017-05-11T04:02:02.285Z,18.84
2017-05-11T04:02:21.036Z,18.82
2017-05-11T04:02:39.258Z,18.87
2017-05-11T04:02:58.577Z,18.82
2017-05-11T04:03:17.319Z,18.9
2017-05-11T04:03:36.633Z,18.92
2017-05-11T04:03:55.898Z,18.9
2017-05-11T04:04:15.182Z,18.84
2017-05-11T04:04:34.466Z,18.89
2017-05-11T04:04:53.736Z,18.94
2017-05-11T04:05:13.018Z,18.92
2017-05-11T04:05:32.297Z,18.95
2017-05-11T04:05:51.555Z,18.94
2017-05-11T04:06:10.332Z,18.98
2017-05-11T04:06:29.634Z,18.95
2017-05-11T04:06:48.863Z,18.99
2017-05-11T04:07:07.645Z,19.02
2017-05-11T04:07:26.418Z,18.98
2017-05-11T04:07:45.700Z,19.05
2017-05-11T04:12:46.999Z,19.13
2017-05-11T04:13:05.753Z,19.08
2017-05-11T04:13:25.042Z,19.09
2017-05-11T04:13:44.315Z,19.08
2017-05-11T04:14:03.093Z,19.08
2017-05-11T04:14:22.343Z,19.11
2017-05-11T04:14:41.627Z,19.17
2017-05-11T04:15:00.411Z,19.14
2017-05-11T04:15:19.185Z,18.99
2017-05-11T04:15:38.460Z,19.02
2017-05-11T04:15:57.737Z,18.99
2017-05-11T04:16:16.510Z,18.98
2017-05-11T04:16:35.789Z,18.99
2017-05-11T04:16:55.082Z,18.97
2017-05-11T04:17:13.852Z,18.98
2017-05-11T04:17:33.137Z,19.06
2017-05-11T04:17:52.441Z,18.97
2017-05-11T04:18:11.739Z,18.97
2017-05-11T04:18:31.045Z,18.97
2017-05-11T04:18:50.342Z,18.89
2017-05-11T04:19:09.617Z,18.97
2017-05-11T04:19:28.872Z,19.06
2017-05-11T04:19:48.138Z,18.98
2017-05-11T04:20:06.919Z,18.97
2017-05-11T04:20:26.192Z,18.94